createdAt,value
2019-01-19T00:02:27.895Z,100004.16
2019-01-19T00:05:57.460Z,99996.77
2019-01-19T00:08:32.825Z,99993.56
2019-01-19T00:11:38.245Z,99982.44
2019-01-19T00:14:21.698Z,99982.44
2019-01-19T00:17:42.172Z,99982.86
2019-01-19T00:20:38.608Z,99985.37
2019-01-19T00:23:59.106Z,99984.98
2019-01-19T00:27:16.458Z,99984.83
2019-01-19T00:30:29.401Z,99978.49
2019-01-19T00:33:50.575Z,99975.61
2019-01-19T00:36:47.168Z,99973.62
2019-01-19T00:39:50.453Z,99976.94
2019-01-19T00:43:00.468Z,99979.72
2019-01-19T00:46:09.142Z,99985.13
2019-01-19T00:48:54.566Z,99977.63
2019-01-19T00:51:41.779Z,99973.89
2019-01-19T00:54:49.856Z,99978.04
2019-01-19T00:57:45.931Z,99980.06
2019-01-19T01:00:22.176Z,99987.78
2019-01-19T01:03:15.045Z,99989.46
2019-01-19T01:06:13.435Z,99992.48
2019-01-19T01:09:15.259Z,99985.96
2019-01-19T01:12:27.127Z,99981.30
2019-01-19T01:15:49.229Z,99986.64
2019-01-19T01:18:56.858Z,99986.82
2019-01-19T01:22:14.125Z,99990.61
2019-01-19T01:25:08.591Z,99990.15
2019-01-19T01:28:21.738Z,99984.96
2019-01-19T01:31:23.566Z,99984.23
2019-01-19T01:34:24.038Z,99983.19
2019-01-19T01:37:31.143Z,99981.64
2019-01-19T01:40:26.725Z,99980.23
2019-01-19T01:43:34.447Z,99979.72
2019-01-19T01:46:47.592Z,99986.27
2019-01-19T01:49:39.065Z,99975.33
2019-01-19T01:52:49.303Z,99976.58
2019-01-19T01:55:49.086Z,99976.53
2019-01-19T01:58:35.710Z,99973.38
2019-01-19T02:01:22.388Z,99973.20
2019-01-19T02:04:41.089Z,99971.41
2019-01-19T02:07:25.014Z,99973.19
2019-01-19T02:10:35.981Z,99968.99
2019-01-19T02:13:48.962Z,99960.54
2019-01-19T02:16:43.961Z,99963.65
2019-01-19T02:19:43.578Z,99964.64
2019-01-19T02:22:49.262Z,99969.13
2019-01-19T02:25:52.847Z,99966.92
2019-01-19T02:28:32.970Z,99970.08
2019-01-19T02:31:49.835Z,99966.41
2019-01-19T02:34:48.860Z,99966.61
2019-01-19T02:38:00.750Z,99975.09
2019-01-19T02:41:00.047Z,99970.84
2019-01-19T02:44:14.380Z,99960.86
2019-01-19T02:47:21.332Z,99964.38
2019-01-19T02:50:25.844Z,99958.09
2019-01-19T02:53:45.279Z,99946.50
2019-01-19T02:56:38.137Z,99944.98
2019-01-19T02:59:25.980Z,99949.66
2019-01-19T03:02:35.048Z,99957.22
2019-01-19T03:05:37.040Z,99957.81
2019-01-19T03:08:47.751Z,99954.64
2019-01-19T03:12:01.206Z,99952.36
2019-01-19T03:15:02.243Z,99946.68
2019-01-19T03:18:23.990Z,99953.52
2019-01-19T03:21:22.816Z,99949.91
2019-01-19T03:24:19.747Z,99944.23
2019-01-19T03:27:20.248Z,99935.28
2019-01-19T03:30:36.483Z,99935.55
2019-01-19T03:33:47.740Z,99928.23
2019-01-19T03:36:46.445Z,99932.25
2019-01-19T03:39:51.058Z,99934.78
2019-01-19T03:43:04.838Z,99929.84
2019-01-19T03:46:08.793Z,99932.04
2019-01-19T03:49:19.951Z,99933.41
2019-01-19T03:52:33.245Z,99932.63
2019-01-19T03:55:43.535Z,99939.91
2019-01-19T03:58:48.043Z,99935.91
2019-01-19T04:02:00.422Z,99931.87
2019-01-19T04:04:52.703Z,99934.81
2019-01-19T04:08:03.844Z,99942.78
2019-01-19T04:11:24.323Z,99935.09
2019-01-19T04:14:04.673Z,99928.26
2019-01-19T04:17:36.895Z,99940.05
2019-01-19T04:20:39.243Z,99943.48
2019-01-19T04:23:09.683Z,99937.25
2019-01-19T04:26:03.638Z,99940.30
2019-01-19T04:28:34.322Z,99939.50
2019-01-19T04:31:04.832Z,99932.66
2019-01-19T04:33:35.236Z,99930.77
2019-01-19T04:36:21.237Z,99934.06
2019-01-19T04:38:45.749Z,99933.58
2019-01-19T04:41:16.125Z,99932.72
2019-01-19T04:43:46.576Z,99922.66
2019-01-19T04:46:17.065Z,99927.13
2019-01-19T04:48:47.906Z,99929.64
2019-01-19T04:51:18.356Z,99916.45
2019-01-19T04:53:48.771Z,99925.08
2019-01-19T04:56:19.154Z,99924.53
2019-01-19T04:58:49.648Z,99919.77
2019-01-19T05:01:20.058Z,99920.88
2019-01-19T05:03:50.503Z,99923.00
2019-01-19T05:06:30.041Z,99920.48
2019-01-19T05:08:53.936Z,99923.00
2019-01-19T05:11:24.363Z,99924.97
2019-01-19T05:13:54.750Z,99930.61
2019-01-19T05:16:25.128Z,99920.16
2019-01-19T05:18:55.788Z,99922.67
2019-01-19T05:21:26.360Z,99934.21
2019-01-19T05:23:56.896Z,99931.71
2019-01-19T05:26:27.317Z,99927.81
2019-01-19T05:28:57.753Z,99924.78
2019-01-19T05:31:28.150Z,99921.59
2019-01-19T05:33:58.536Z,99918.22
2019-01-19T05:36:29.018Z,99926.67
2019-01-19T05:38:59.405Z,99926.28
2019-01-19T05:41:29.914Z,99927.22
2019-01-19T05:44:00.440Z,99937.64
2019-01-19T05:46:31.660Z,99927.83
2019-01-19T05:49:02.110Z,99929.45
2019-01-19T05:51:32.455Z,99928.47
2019-01-19T05:54:03.056Z,99933.84
2019-01-19T05:56:33.555Z,99935.00
2019-01-19T05:59:03.969Z,99932.83
2019-01-19T06:01:34.326Z,99937.27
2019-01-19T06:04:04.815Z,99933.59
2019-01-19T06:06:35.234Z,99937.49
2019-01-19T06:09:08.218Z,99939.55
2019-01-19T06:11:38.654Z,99936.24
2019-01-19T06:14:09.181Z,99938.52
2019-01-19T06:16:39.574Z,99934.30
2019-01-19T06:19:10.911Z,99931.82
2019-01-19T06:21:54.808Z,99937.97
2019-01-19T06:24:25.190Z,99935.70
2019-01-19T06:26:55.595Z,99933.91
2019-01-19T06:29:26.041Z,99933.63
2019-01-19T06:31:56.537Z,99935.25
2019-01-19T06:34:26.945Z,99934.39
2019-01-19T06:36:57.330Z,99947.19
2019-01-19T06:39:27.727Z,99940.14
2019-01-19T06:41:58.116Z,99946.39
2019-01-19T06:44:28.589Z,99946.25
2019-01-19T06:46:58.971Z,99949.83
2019-01-19T06:49:29.461Z,99943.11
2019-01-19T06:51:59.894Z,99942.73
2019-01-19T06:54:30.653Z,99945.28
2019-01-19T06:57:01.008Z,99938.91
2019-01-19T06:59:31.406Z,99940.31
2019-01-19T07:02:01.801Z,99949.66
2019-01-19T07:04:32.336Z,99934.92
2019-01-19T07:07:03.106Z,99940.34
2019-01-19T07:09:33.550Z,99942.86
2019-01-19T07:12:04.148Z,99941.49
2019-01-19T07:14:34.529Z,99945.46
2019-01-19T07:17:04.956Z,99939.28
2019-01-19T07:19:35.319Z,99936.47
2019-01-19T07:22:05.929Z,99939.50
2019-01-19T07:24:36.400Z,99944.32
2019-01-19T07:27:06.805Z,99939.28
2019-01-19T07:29:37.207Z,99940.48
2019-01-19T07:32:07.588Z,99950.00
2019-01-19T07:34:38.060Z,99947.70
2019-01-19T07:37:09.874Z,99947.93
2019-01-19T07:39:40.552Z,99948.66
2019-01-19T07:42:11.140Z,99950.28
2019-01-19T07:44:41.581Z,99950.61
2019-01-19T07:47:12.403Z,99948.80
2019-01-19T07:49:43.173Z,99954.16
2019-01-19T07:52:13.906Z,99949.80
2019-01-19T07:54:44.341Z,99954.41
2019-01-19T07:57:14.771Z,99960.34
2019-01-19T07:59:45.220Z,99956.93
2019-01-19T08:02:15.913Z,99952.77
2019-01-19T08:04:46.559Z,99958.17
2019-01-19T08:07:17.561Z,99958.95
2019-01-19T08:09:48.070Z,99955.97
2019-01-19T08:12:18.581Z,99962.02
2019-01-19T08:14:49.028Z,99959.91
2019-01-19T08:17:19.486Z,99950.01
2019-01-19T08:19:49.868Z,99946.75
2019-01-19T08:22:20.317Z,99945.02
2019-01-19T08:24:50.841Z,99945.77
2019-01-19T08:27:21.343Z,99946.84
2019-01-19T08:29:51.819Z,99947.19
2019-01-19T08:32:23.862Z,99949.34
2019-01-19T08:34:54.376Z,99948.85
2019-01-19T08:37:24.771Z,99938.62
2019-01-19T08:39:55.244Z,99943.69
2019-01-19T08:42:25.826Z,99945.02
2019-01-19T08:44:56.879Z,99942.20
2019-01-19T08:47:27.392Z,99947.42
2019-01-19T08:49:57.962Z,99953.53
2019-01-19T08:52:28.487Z,99952.56
2019-01-19T08:54:58.962Z,99948.75
2019-01-19T08:57:29.351Z,99950.83
2019-01-19T08:59:59.903Z,99950.16
2019-01-19T09:02:30.456Z,99958.55
2019-01-19T09:05:02.643Z,99960.20
2019-01-19T09:07:33.844Z,99962.30
2019-01-19T09:10:05.404Z,99966.81
2019-01-19T09:12:35.973Z,99959.52
2019-01-19T09:15:07.992Z,99964.19
2019-01-19T09:17:38.426Z,99964.98
2019-01-19T09:20:10.499Z,99969.66
2019-01-19T09:22:40.908Z,99957.36
2019-01-19T09:25:12.899Z,99967.90
2019-01-19T09:27:43.445Z,99956.34
2019-01-19T09:30:16.401Z,99968.91
2019-01-19T09:32:46.945Z,99961.66
2019-01-19T09:35:17.549Z,99959.23
2019-01-19T09:37:48.022Z,99954.39
2019-01-19T09:40:18.598Z,99962.91
2019-01-19T09:42:49.167Z,99948.31
2019-01-19T09:45:19.708Z,99943.19
2019-01-19T09:47:50.111Z,99941.72
2019-01-19T09:50:20.851Z,99940.37
2019-01-19T09:52:51.386Z,99939.25
2019-01-19T09:55:21.776Z,99936.93
2019-01-19T09:57:52.146Z,99937.27
2019-01-19T10:00:23.033Z,99932.63
2019-01-19T10:02:53.393Z,99933.02
2019-01-19T10:05:23.903Z,99933.08
2019-01-19T10:07:54.344Z,99934.16
2019-01-19T10:10:24.735Z,99924.56
2019-01-19T10:12:55.132Z,99918.88
2019-01-19T10:15:27.523Z,99922.94
2019-01-19T10:17:58.235Z,99924.56
2019-01-19T10:20:28.731Z,99925.53
2019-01-19T10:22:59.123Z,99915.73
2019-01-19T10:25:29.497Z,99911.50
2019-01-19T10:27:59.966Z,99907.63
2019-01-19T10:30:30.390Z,99904.83
2019-01-19T10:33:00.798Z,99904.59
2019-01-19T10:35:31.267Z,99896.73
2019-01-19T10:38:01.652Z,99896.27
2019-01-19T10:40:32.108Z,99898.80
2019-01-19T10:43:02.577Z,99893.86
2019-01-19T10:45:33.097Z,99893.69
2019-01-19T10:48:03.712Z,99886.36
2019-01-19T10:50:34.135Z,99883.91
2019-01-19T10:53:04.513Z,99879.41
2019-01-19T10:55:34.998Z,99886.27
2019-01-19T10:58:05.792Z,99879.54
2019-01-19T11:00:36.248Z,99878.69
2019-01-19T11:03:06.652Z,99877.42
2019-01-19T11:05:38.085Z,99869.94
2019-01-19T11:08:10.293Z,99875.55
2019-01-19T11:10:40.660Z,99875.62
2019-01-19T11:13:13.784Z,99868.38
2019-01-19T11:15:44.880Z,99870.91
2019-01-19T11:18:15.388Z,99861.44
2019-01-19T11:20:46.465Z,99865.22
2019-01-19T11:23:17.371Z,99864.13
2019-01-19T11:25:48.986Z,99856.16
2019-01-19T11:28:19.954Z,99854.09
2019-01-19T11:30:50.516Z,99854.36
2019-01-19T11:33:21.609Z,99851.34
2019-01-19T11:35:52.489Z,99842.92
2019-01-19T11:38:23.528Z,99841.02
2019-01-19T11:40:54.968Z,99842.02
2019-01-19T11:43:25.647Z,99832.42
2019-01-19T11:45:56.635Z,99828.59
2019-01-19T11:48:27.644Z,99831.23
2019-01-19T11:50:58.462Z,99826.37
2019-01-19T11:53:29.389Z,99818.92
2019-01-19T11:56:00.246Z,99827.02
2019-01-19T11:58:30.710Z,99820.77
2019-01-19T12:01:01.801Z,99816.46
2019-01-19T12:03:32.834Z,99816.62
2019-01-19T12:06:04.578Z,99808.86
2019-01-19T12:08:35.427Z,99806.97
2019-01-19T12:11:06.656Z,99806.09
2019-01-19T12:13:37.546Z,99803.17
2019-01-19T12:16:08.687Z,99806.64
2019-01-19T12:18:39.288Z,99797.11
2019-01-19T12:21:10.234Z,99797.28
2019-01-19T12:23:40.987Z,99797.17
2019-01-19T12:26:12.203Z,99788.58
2019-01-19T12:28:42.910Z,99784.27
2019-01-19T12:31:14.151Z,99783.47
2019-01-19T12:33:45.418Z,99787.27
2019-01-19T12:36:15.790Z,99780.17
2019-01-19T12:38:46.825Z,99775.04
2019-01-19T12:41:18.636Z,99775.20
2019-01-19T12:43:49.161Z,99771.89
2019-01-19T12:46:19.948Z,99769.75
2019-01-19T12:48:51.181Z,99762.92
2019-01-19T12:51:21.833Z,99765.06
2019-01-19T12:53:53.249Z,99759.09
2019-01-19T12:56:23.915Z,99751.25
2019-01-19T12:58:54.802Z,99746.39
2019-01-19T13:01:25.970Z,99746.48
2019-01-19T13:03:58.532Z,99741.95
2019-01-19T13:06:51.109Z,99741.34
2019-01-19T13:09:35.686Z,99745.93
2019-01-19T13:12:39.628Z,99738.19
2019-01-19T13:15:56.765Z,99734.31
2019-01-19T13:18:59.872Z,99736.84
2019-01-19T13:22:08.778Z,99733.53
2019-01-19T13:25:05.662Z,99728.89
2019-01-19T13:27:59.247Z,99737.31
2019-01-19T13:31:12.982Z,99726.67
2019-01-19T13:34:16.256Z,99726.86
2019-01-19T13:37:00.476Z,99727.03
2019-01-19T13:40:28.071Z,99723.78
2019-01-19T13:43:14.147Z,99720.80
2019-01-19T13:46:13.297Z,99719.45
2019-01-19T13:49:21.540Z,99715.89
2019-01-19T13:52:18.388Z,99718.78
2019-01-19T13:55:51.837Z,99709.68
2019-01-19T13:58:47.261Z,99710.14
2019-01-19T14:02:03.006Z,99712.52
2019-01-19T14:04:43.162Z,99713.38
2019-01-19T14:08:00.172Z,99725.30
2019-01-19T14:10:58.310Z,99713.49
2019-01-19T14:14:13.082Z,99715.07
2019-01-19T14:17:21.157Z,99716.89
2019-01-19T14:20:00.769Z,99713.35
2019-01-19T14:23:18.308Z,99714.23
2019-01-19T14:26:12.821Z,99712.89
2019-01-19T14:29:17.229Z,99707.89
2019-01-19T14:32:42.202Z,99713.16
2019-01-19T14:36:06.530Z,99707.73
2019-01-19T14:39:36.344Z,99703.14
2019-01-19T14:42:47.187Z,99704.37
2019-01-19T14:46:00.530Z,99698.11
2019-01-19T14:49:31.108Z,99696.43
2019-01-19T14:53:01.377Z,99691.99
2019-01-19T14:56:12.431Z,99694.84
2019-01-19T14:59:18.427Z,99690.94
2019-01-19T15:02:36.064Z,99688.09
2019-01-19T15:05:17.298Z,99685.09
2019-01-19T15:08:26.719Z,99677.42
2019-01-19T15:11:51.869Z,99677.24
2019-01-19T15:14:36.862Z,99674.27
2019-01-19T15:17:39.692Z,99672.03
2019-01-19T15:20:28.476Z,99669.42
2019-01-19T15:23:39.745Z,99666.05
2019-01-19T15:26:49.022Z,99663.81
2019-01-19T15:29:50.676Z,99662.77
2019-01-19T15:32:34.651Z,99667.95
2019-01-19T15:35:35.912Z,99663.27
2019-01-19T15:39:10.748Z,99665.29
2019-01-19T15:42:21.416Z,99670.63
2019-01-19T15:45:40.172Z,99669.80
2019-01-19T15:48:41.558Z,99661.80
2019-01-19T15:51:50.410Z,99655.88
2019-01-19T15:54:35.388Z,99653.80
2019-01-19T15:57:34.123Z,99657.94
2019-01-19T16:00:28.711Z,99658.79
2019-01-19T16:03:41.793Z,99655.90
2019-01-19T16:06:44.698Z,99656.30
2019-01-19T16:09:58.984Z,99651.64
2019-01-19T16:13:02.232Z,99658.91
2019-01-19T16:16:27.234Z,99650.27
2019-01-19T16:19:45.034Z,99655.39
2019-01-19T16:22:38.817Z,99652.69
2019-01-19T16:25:58.911Z,99651.77
2019-01-19T16:29:10.738Z,99644.96
2019-01-19T16:32:32.897Z,99640.45
2019-01-19T16:35:41.814Z,99647.17
2019-01-19T16:38:50.542Z,99645.64
2019-01-19T16:41:41.853Z,99641.04
2019-01-19T16:45:09.611Z,99634.61
2019-01-19T16:48:41.879Z,99635.40
2019-01-19T16:51:57.649Z,99634.63
2019-01-19T16:55:09.551Z,99635.13
2019-01-19T16:58:28.571Z,99636.38
2019-01-19T17:01:37.976Z,99631.60
2019-01-19T17:04:39.815Z,99630.66
2019-01-19T17:07:44.932Z,99634.94
2019-01-19T17:10:56.757Z,99626.05
2019-01-19T17:14:21.524Z,99627.77
2019-01-19T17:17:28.725Z,99628.14
2019-01-19T17:20:22.352Z,99627.68
2019-01-19T17:23:12.544Z,99628.14
2019-01-19T17:26:24.737Z,99629.33
2019-01-19T17:29:35.256Z,99628.14
2019-01-19T17:32:47.609Z,99629.48
2019-01-19T17:35:54.001Z,99630.01
2019-01-19T17:39:05.044Z,99628.23
2019-01-19T17:42:26.977Z,99627.09
2019-01-19T17:45:13.419Z,99628.08
2019-01-19T17:48:27.743Z,99626.05
2019-01-19T17:51:25.490Z,99626.33
2019-01-19T17:54:12.927Z,99627.25
2019-01-19T17:57:13.510Z,99624.19
2019-01-19T18:00:14.135Z,99621.21
2019-01-19T18:03:40.519Z,99623.78
2019-01-19T18:06:22.075Z,99615.78
2019-01-19T18:09:24.042Z,99612.87
2019-01-19T18:12:29.343Z,99609.06
2019-01-19T18:15:44.522Z,99610.55
2019-01-19T18:19:04.165Z,99613.92
2019-01-19T18:22:10.637Z,99605.72
2019-01-19T18:25:06.580Z,99611.11
2019-01-19T18:28:26.001Z,99609.86
2019-01-19T18:31:42.980Z,99602.72
2019-01-19T18:34:55.749Z,99603.00
2019-01-19T18:37:54.790Z,99605.11
2019-01-19T18:40:52.128Z,99595.44
2019-01-19T18:44:03.034Z,99596.70
2019-01-19T18:47:21.089Z,99599.34
2019-01-19T18:50:43.061Z,99590.69
2019-01-19T18:53:40.071Z,99590.23
2019-01-19T18:56:45.818Z,99590.34
2019-01-19T18:59:53.405Z,99588.58
2019-01-19T19:03:35.491Z,99588.89
2019-01-19T19:06:37.193Z,99587.13
2019-01-19T19:09:40.835Z,99592.38
2019-01-19T19:12:26.581Z,99588.12
2019-01-19T19:15:42.832Z,99583.86
2019-01-19T19:19:02.343Z,99578.89
2019-01-19T19:22:19.597Z,99576.13
2019-01-19T19:25:22.759Z,99577.09
2019-01-19T19:28:21.580Z,99582.31
2019-01-19T19:31:34.608Z,99581.52
2019-01-19T19:34:29.090Z,99580.58
2019-01-19T19:37:09.667Z,99580.17
2019-01-19T19:40:21.917Z,99575.06
2019-01-19T19:43:23.997Z,99574.09
2019-01-19T19:46:19.851Z,99577.88
2019-01-19T19:49:31.836Z,99573.84
2019-01-19T19:52:04.322Z,99576.45
2019-01-19T19:54:36.352Z,99571.70
2019-01-19T19:57:08.797Z,99574.55
2019-01-19T19:59:40.718Z,99572.77
2019-01-19T20:02:11.872Z,99570.56
2019-01-19T20:04:42.922Z,99569.70
2019-01-19T20:07:13.925Z,99571.82
2019-01-19T20:09:44.869Z,99564.66
2019-01-19T20:12:15.821Z,99566.67
2019-01-19T20:14:46.758Z,99564.50
2019-01-19T20:17:17.842Z,99559.84
2019-01-19T20:19:48.721Z,99556.77
2019-01-19T20:22:19.766Z,99557.23
2019-01-19T20:24:50.602Z,99552.33
2019-01-19T20:27:21.016Z,99541.39
2019-01-19T20:29:51.903Z,99542.71
2019-01-19T20:32:22.825Z,99544.13
2019-01-19T20:34:53.957Z,99542.56
2019-01-19T20:37:24.909Z,99542.56
2019-01-19T20:39:55.954Z,99538.77
2019-01-19T20:42:26.846Z,99538.70
2019-01-19T20:44:58.078Z,99538.98
2019-01-19T20:47:29.102Z,99538.67
2019-01-19T20:49:59.488Z,99535.42
2019-01-19T20:52:29.937Z,99533.48
2019-01-19T20:55:00.993Z,99536.42
2019-01-19T20:57:32.132Z,99532.30
2019-01-19T21:00:03.324Z,99532.56
2019-01-19T21:02:34.371Z,99537.02
2019-01-19T21:05:05.366Z,99534.32
2019-01-19T21:07:36.004Z,99534.05
2019-01-19T21:10:06.692Z,99536.53
2019-01-19T21:12:38.156Z,99531.88
2019-01-19T21:15:10.824Z,99525.54
2019-01-19T21:17:43.414Z,99531.02
2019-01-19T21:20:14.463Z,99530.72
2019-01-19T21:22:45.315Z,99529.77
2019-01-19T21:25:16.174Z,99527.76
2019-01-19T21:27:47.181Z,99527.72
2019-01-19T21:30:18.449Z,99525.91
2019-01-19T21:32:49.315Z,99529.05
2019-01-19T21:35:20.299Z,99523.06
2019-01-19T21:37:53.370Z,99526.23
2019-01-19T21:40:24.144Z,99525.17
2019-01-19T21:42:55.277Z,99520.02
2019-01-19T21:45:26.194Z,99524.05
2019-01-19T21:47:57.188Z,99523.06
2019-01-19T21:50:28.364Z,99522.38
2019-01-19T21:52:59.224Z,99525.73
2019-01-19T21:55:30.213Z,99518.55
2019-01-19T21:58:02.672Z,99518.77
2019-01-19T22:00:34.242Z,99512.38
2019-01-19T22:03:05.407Z,99515.61
2019-01-19T22:05:37.297Z,99507.98
2019-01-19T22:08:08.409Z,99509.00
2019-01-19T22:10:46.147Z,99511.81
2019-01-19T22:13:13.439Z,99507.13
2019-01-19T22:15:44.386Z,99509.56
2019-01-19T22:18:15.459Z,99504.25
2019-01-19T22:20:46.448Z,99503.95
2019-01-19T22:23:17.498Z,99504.98
2019-01-19T22:25:50.475Z,99501.67
2019-01-19T22:28:21.409Z,99497.55
2019-01-19T22:30:52.661Z,99495.23
2019-01-19T22:33:23.980Z,99496.16
2019-01-19T22:35:54.474Z,99496.84
2019-01-19T22:38:25.489Z,99494.23
2019-01-19T22:40:56.441Z,99488.69
2019-01-19T22:43:32.866Z,99493.70
2019-01-19T22:46:05.678Z,99487.29
2019-01-19T22:48:38.465Z,99487.47
2019-01-19T22:51:11.339Z,99482.88
2019-01-19T22:53:43.984Z,99484.72
2019-01-19T22:56:14.565Z,99472.17
2019-01-19T22:58:45.490Z,99479.39
2019-01-19T23:01:35.976Z,99475.66
2019-01-19T23:04:08.635Z,99476.30
2019-01-19T23:06:39.552Z,99473.20
2019-01-19T23:09:11.962Z,99470.42
2019-01-19T23:11:44.879Z,99472.75
2019-01-19T23:14:15.628Z,99466.96
2019-01-19T23:16:46.673Z,99461.36
2019-01-19T23:19:17.625Z,99460.66
2019-01-19T23:21:49.594Z,99457.97
2019-01-19T23:24:22.686Z,99456.00
2019-01-19T23:26:56.930Z,99448.89
2019-01-19T23:29:29.809Z,99451.20
2019-01-19T23:32:01.422Z,99448.30
2019-01-19T23:34:32.359Z,99446.66
2019-01-19T23:37:02.731Z,99446.25
2019-01-19T23:39:34.382Z,99443.59
2019-01-19T23:42:05.464Z,99445.97
2019-01-19T23:44:36.292Z,99436.16
2019-01-19T23:47:07.222Z,99434.02
2019-01-19T23:49:37.861Z,99437.95
2019-01-19T23:52:08.989Z,99431.81
2019-01-19T23:54:39.794Z,99428.24
2019-01-19T23:57:11.054Z,99428.88
2019-01-19T23:59:41.830Z,99427.56
